createdAt,value
2023-03-17T00:00:52.167Z,8.96
2023-03-17T00:03:25.808Z,8.87
2023-03-17T00:05:57.350Z,8.87
2023-03-17T00:08:32.548Z,8.76
2023-03-17T00:11:02.683Z,8.71
2023-03-17T00:13:33.202Z,8.71
2023-03-17T00:16:05.528Z,8.90
2023-03-17T00:18:35.474Z,8.70
2023-03-17T00:21:05.703Z,8.52
2023-03-17T00:23:36.498Z,8.61
2023-03-17T00:26:06.431Z,8.58
2023-03-17T00:28:36.217Z,8.48
2023-03-17T00:31:09.541Z,8.61
2023-03-17T00:33:40.422Z,8.50
2023-03-17T00:36:15.806Z,8.50
2023-03-17T00:38:46.810Z,8.36
2023-03-17T00:41:16.652Z,8.36
2023-03-17T00:43:46.467Z,8.31
2023-03-17T00:46:19.827Z,8.28
2023-03-17T00:48:50.131Z,8.40
2023-03-17T00:51:21.063Z,8.37
2023-03-17T00:53:51.219Z,8.12
2023-03-17T00:56:23.111Z,8.36
2023-03-17T00:58:53.013Z,8.27
2023-03-17T01:01:22.898Z,8.37
2023-03-17T01:03:53.494Z,8.15
2023-03-17T01:06:23.284Z,8.26
2023-03-17T01:08:53.755Z,8.33
2023-03-17T01:11:23.874Z,8.25
2023-03-17T01:13:53.994Z,8.12
2023-03-17T01:16:24.156Z,8.21
2023-03-17T01:18:53.972Z,8.28
2023-03-17T01:21:24.926Z,8.35
2023-03-17T01:23:55.069Z,8.13
2023-03-17T01:26:26.213Z,8.29
2023-03-17T01:28:56.462Z,8.34
2023-03-17T01:31:26.237Z,8.23
2023-03-17T01:33:55.831Z,8.27
2023-03-17T01:36:25.670Z,8.22
2023-03-17T01:38:55.445Z,8.22
2023-03-17T01:41:25.072Z,8.31
2023-03-17T01:43:55.260Z,8.25
2023-03-17T01:46:27.936Z,8.16
2023-03-17T01:49:30.465Z,8.15
2023-03-17T01:52:09.621Z,8.17
2023-03-17T01:54:50.598Z,8.25
2023-03-17T01:57:23.429Z,8.10
2023-03-17T02:00:09.025Z,8.08
2023-03-17T02:02:47.921Z,8.12
2023-03-17T02:05:20.601Z,8.03
2023-03-17T02:07:50.711Z,8.18
2023-03-17T02:10:22.962Z,8.24
2023-03-17T02:12:56.605Z,8.10
2023-03-17T02:15:28.200Z,8.12
2023-03-17T02:17:58.591Z,8.06
2023-03-17T02:20:31.902Z,7.91
2023-03-17T02:23:02.659Z,7.91
2023-03-17T02:25:34.371Z,7.81
2023-03-17T02:28:14.846Z,8.03
2023-03-17T02:30:44.993Z,7.93
2023-03-17T02:33:16.570Z,7.93
2023-03-17T02:35:46.879Z,8.07
2023-03-17T02:38:18.723Z,7.92
2023-03-17T02:40:48.465Z,7.76
2023-03-17T02:43:18.364Z,7.82
2023-03-17T02:45:48.202Z,7.86
2023-03-17T02:48:19.970Z,7.82
2023-03-17T02:50:49.758Z,7.88
2023-03-17T02:53:19.881Z,7.81
2023-03-17T02:55:49.696Z,7.80
2023-03-17T02:58:19.949Z,7.93
2023-03-17T03:00:50.114Z,7.87
2023-03-17T03:03:20.022Z,7.89
2023-03-17T03:05:50.961Z,7.97
2023-03-17T03:08:22.084Z,7.97
2023-03-17T03:10:52.337Z,7.98
2023-03-17T03:13:22.162Z,7.96
2023-03-17T03:15:51.985Z,7.85
2023-03-17T03:18:21.471Z,7.78
2023-03-17T03:20:51.544Z,7.94
2023-03-17T03:23:21.758Z,7.91
2023-03-17T03:25:51.525Z,7.98
2023-03-17T03:28:21.389Z,7.94
2023-03-17T03:30:51.496Z,7.87
2023-03-17T03:33:21.658Z,7.97
2023-03-17T03:35:51.498Z,7.98
2023-03-17T03:38:21.448Z,8.10
2023-03-17T03:40:51.620Z,8.01
2023-03-17T03:43:23.924Z,8.08
2023-03-17T03:45:54.602Z,8.07
2023-03-17T03:48:24.221Z,8.12
2023-03-17T03:50:59.268Z,8.18
2023-03-17T03:53:29.952Z,8.20
2023-03-17T03:55:59.820Z,8.20
2023-03-17T03:58:29.642Z,8.18
2023-03-17T04:00:59.490Z,8.22
2023-03-17T04:03:29.388Z,7.94
2023-03-17T04:05:59.176Z,8.09
2023-03-17T04:08:28.819Z,8.11
2023-03-17T04:10:58.785Z,8.00
2023-03-17T04:13:28.553Z,8.08
2023-03-17T04:15:58.321Z,8.03
2023-03-17T04:18:28.296Z,7.91
2023-03-17T04:20:58.294Z,7.86
2023-03-17T04:23:28.976Z,7.96
2023-03-17T04:25:59.155Z,7.83
2023-03-17T04:28:29.198Z,8.02
2023-03-17T04:30:58.932Z,7.72
2023-03-17T04:33:28.696Z,7.84
2023-03-17T04:35:58.607Z,7.75
2023-03-17T04:38:28.374Z,7.77
2023-03-17T04:40:58.460Z,7.72
2023-03-17T04:43:28.252Z,7.67
2023-03-17T04:45:58.086Z,7.64
2023-03-17T04:48:28.114Z,7.61
2023-03-17T04:50:58.550Z,7.65
2023-03-17T04:53:28.697Z,7.41
2023-03-17T04:55:58.213Z,7.52
2023-03-17T04:58:31.133Z,7.56
2023-03-17T05:00:59.913Z,7.76
2023-03-17T05:03:30.257Z,7.89
2023-03-17T05:06:01.575Z,7.76
2023-03-17T05:08:31.498Z,7.74
2023-03-17T05:11:01.333Z,7.68
2023-03-17T05:13:31.110Z,7.84
2023-03-17T05:16:02.174Z,7.85
2023-03-17T05:18:31.944Z,7.74
2023-03-17T05:21:01.779Z,7.79
2023-03-17T05:23:31.596Z,7.79
2023-03-17T05:26:01.151Z,7.58
2023-03-17T05:28:31.133Z,7.78
2023-03-17T05:31:00.963Z,7.76
2023-03-17T05:33:31.099Z,7.60
2023-03-17T05:36:01.477Z,7.50
2023-03-17T05:38:31.328Z,7.56
2023-03-17T05:41:00.860Z,7.52
2023-03-17T05:43:31.222Z,7.67
2023-03-17T05:46:01.183Z,7.50
2023-03-17T05:48:31.061Z,7.47
2023-03-17T05:51:00.908Z,7.44
2023-03-17T05:53:31.183Z,7.47
2023-03-17T05:56:01.020Z,7.45
2023-03-17T05:58:31.478Z,7.48
2023-03-17T06:01:01.920Z,7.48
2023-03-17T06:03:32.073Z,7.52
2023-03-17T06:06:01.934Z,7.44
2023-03-17T06:08:31.669Z,7.52
2023-03-17T06:11:01.739Z,7.40
2023-03-17T06:13:31.616Z,7.34
2023-03-17T06:16:01.418Z,7.36
2023-03-17T06:18:30.958Z,7.46
2023-03-17T06:21:00.738Z,7.53
2023-03-17T06:23:30.904Z,7.40
2023-03-17T06:26:00.760Z,7.33
2023-03-17T06:28:30.645Z,7.28
2023-03-17T06:31:00.585Z,7.28
2023-03-17T06:33:30.710Z,7.29
2023-03-17T06:36:00.634Z,7.28
2023-03-17T06:38:30.592Z,7.37
2023-03-17T06:41:00.367Z,7.32
2023-03-17T06:43:30.127Z,7.38
2023-03-17T06:45:59.919Z,7.48
2023-03-17T06:48:29.378Z,7.54
2023-03-17T06:50:59.149Z,7.72
2023-03-17T06:53:28.964Z,7.64
2023-03-17T06:55:58.776Z,7.59
2023-03-17T06:58:28.760Z,7.84
2023-03-17T07:00:59.699Z,7.95
2023-03-17T07:03:29.533Z,7.95
2023-03-17T07:05:59.858Z,7.88
2023-03-17T07:08:30.878Z,8.22
2023-03-17T07:11:00.897Z,8.45
2023-03-17T07:13:32.352Z,8.49
2023-03-17T07:16:02.853Z,8.46
2023-03-17T07:18:33.745Z,8.69
2023-03-17T07:21:04.377Z,8.72
2023-03-17T07:23:34.163Z,8.72
2023-03-17T07:26:05.132Z,8.87
2023-03-17T07:28:35.181Z,8.75
2023-03-17T07:31:06.718Z,9.00
2023-03-17T07:33:36.515Z,9.03
2023-03-17T07:36:07.487Z,9.33
2023-03-17T07:38:37.612Z,9.23
2023-03-17T07:41:09.204Z,9.34
2023-03-17T07:43:39.382Z,9.37
2023-03-17T07:46:09.722Z,9.46
2023-03-17T07:48:41.200Z,9.62
2023-03-17T07:51:14.034Z,9.40
2023-03-17T07:53:45.140Z,9.59
2023-03-17T07:56:15.980Z,9.87
2023-03-17T07:58:45.974Z,9.99
2023-03-17T08:01:16.517Z,9.81
2023-03-17T08:03:46.313Z,9.79
2023-03-17T08:06:16.102Z,10.10
2023-03-17T08:08:46.154Z,10.23
2023-03-17T08:11:17.666Z,10.43
2023-03-17T08:13:48.368Z,10.36
2023-03-17T08:16:18.441Z,10.43
2023-03-17T08:18:48.288Z,10.14
2023-03-17T08:21:18.116Z,10.27
2023-03-17T08:23:48.517Z,10.45
2023-03-17T08:26:18.624Z,10.66
2023-03-17T08:28:50.188Z,10.91
2023-03-17T08:31:22.681Z,11.21
2023-03-17T08:33:54.689Z,10.75
2023-03-17T08:36:24.612Z,10.72
2023-03-17T08:38:54.517Z,10.72
2023-03-17T08:41:26.860Z,10.92
2023-03-17T08:43:58.433Z,10.89
2023-03-17T08:46:31.252Z,11.13
2023-03-17T08:49:02.004Z,11.08
2023-03-17T08:51:34.684Z,11.18
2023-03-17T08:54:07.669Z,11.17
2023-03-17T08:56:38.193Z,11.05
2023-03-17T08:59:08.744Z,11.45
2023-03-17T09:01:40.184Z,11.56
2023-03-17T09:04:11.668Z,11.52
2023-03-17T09:06:51.828Z,12.01
2023-03-17T09:09:13.318Z,12.01
2023-03-17T09:11:43.398Z,12.14
2023-03-17T09:14:14.150Z,12.20
2023-03-17T09:16:43.940Z,12.20
2023-03-17T09:19:13.780Z,12.37
2023-03-17T09:21:43.537Z,12.45
2023-03-17T09:24:14.116Z,12.45
2023-03-17T09:26:43.933Z,12.52
2023-03-17T09:29:13.730Z,13.03
2023-03-17T09:31:43.834Z,13.27
2023-03-17T09:34:14.236Z,13.55
2023-03-17T09:36:44.320Z,13.55
2023-03-17T09:39:14.160Z,13.34
2023-03-17T09:42:04.648Z,13.83
2023-03-17T09:44:52.253Z,14.15
2023-03-17T09:47:28.013Z,13.98
2023-03-17T09:50:01.111Z,14.63
2023-03-17T09:52:33.971Z,14.32
2023-03-17T09:55:08.230Z,14.33
2023-03-17T09:57:40.278Z,14.26
2023-03-17T10:00:19.836Z,14.69
2023-03-17T10:02:49.923Z,14.05
2023-03-17T10:05:28.944Z,14.05
2023-03-17T10:08:29.898Z,14.02
2023-03-17T10:11:13.325Z,13.93
2023-03-17T10:13:55.006Z,14.17
2023-03-17T10:16:28.263Z,14.22
2023-03-17T10:19:04.402Z,14.37
2023-03-17T10:21:36.952Z,14.51
2023-03-17T10:24:09.816Z,15.19
2023-03-17T10:26:45.433Z,15.56
2023-03-17T10:32:00.382Z,15.75
2023-03-17T10:34:32.848Z,15.99
2023-03-17T10:37:05.730Z,16.38
2023-03-17T10:39:44.941Z,16.49
2023-03-17T10:42:29.175Z,16.50
2023-03-17T10:45:01.953Z,16.13
2023-03-17T10:47:40.398Z,16.48
2023-03-17T10:50:32.639Z,16.56
2023-03-17T10:53:08.870Z,16.56
2023-03-17T10:55:50.683Z,16.13
2023-03-17T10:58:25.763Z,15.97
2023-03-17T11:00:59.897Z,15.99
2023-03-17T11:03:34.191Z,16.72
2023-03-17T11:06:12.080Z,16.94
2023-03-17T11:08:50.601Z,17.01
2023-03-17T11:11:29.737Z,16.72
2023-03-17T11:14:16.632Z,16.75
2023-03-17T11:16:55.254Z,16.78
2023-03-17T11:19:36.669Z,16.70
2023-03-17T11:25:16.070Z,16.78
2023-03-17T11:28:09.264Z,17.19
2023-03-17T11:30:42.102Z,17.19
2023-03-17T11:33:14.898Z,17.10
2023-03-17T11:35:59.453Z,17.07
2023-03-17T11:38:34.632Z,16.90
2023-03-17T11:41:29.784Z,17.24
2023-03-17T11:44:03.016Z,17.75
2023-03-17T11:46:54.884Z,18.31
2023-03-17T11:49:39.117Z,18.50
2023-03-17T11:52:22.235Z,18.82
2023-03-17T11:55:14.138Z,18.82
2023-03-17T11:57:49.858Z,19.51
2023-03-17T12:00:31.594Z,19.70
2023-03-17T12:03:15.718Z,19.30
2023-03-17T12:05:48.660Z,18.93
2023-03-17T12:08:45.656Z,19.05
2023-03-17T12:11:18.620Z,19.64
2023-03-17T12:13:54.440Z,19.23
2023-03-17T12:16:38.876Z,19.40
2023-03-17T12:19:20.718Z,19.49
2023-03-17T12:21:56.723Z,19.45
2023-03-17T12:24:35.929Z,19.87
2023-03-17T12:27:29.652Z,19.83
2023-03-17T12:30:08.269Z,20.02
2023-03-17T12:32:47.096Z,19.42
2023-03-17T12:35:32.433Z,19.29
2023-03-17T12:38:11.664Z,20.11
2023-03-17T12:40:56.228Z,19.98
2023-03-17T12:43:56.367Z,20.15
2023-03-17T12:46:44.201Z,19.97
2023-03-17T12:49:42.816Z,19.60
2023-03-17T12:52:33.726Z,19.68
2023-03-17T12:55:06.463Z,19.73
2023-03-17T12:57:44.888Z,19.73
2023-03-17T13:00:22.480Z,20.35
2023-03-17T13:02:55.586Z,20.50
2023-03-17T13:05:32.776Z,20.82
2023-03-17T13:08:05.562Z,20.39
2023-03-17T13:10:47.544Z,21.08
2023-03-17T13:13:38.019Z,20.57
2023-03-17T13:16:32.249Z,20.78
2023-03-17T13:19:20.088Z,20.78
2023-03-17T13:22:06.868Z,20.97
2023-03-17T13:24:47.021Z,21.11
2023-03-17T13:27:34.767Z,21.19
2023-03-17T13:30:27.304Z,20.75
2023-03-17T13:33:04.837Z,20.22
2023-03-17T13:35:43.463Z,19.96
2023-03-17T13:38:27.926Z,20.77
2023-03-17T13:41:09.411Z,21.11
2023-03-17T13:43:56.847Z,21.07
2023-03-17T13:46:40.693Z,20.74
2023-03-17T13:49:25.581Z,20.33
2023-03-17T13:52:10.358Z,20.37
2023-03-17T13:54:51.304Z,20.43
2023-03-17T13:57:26.732Z,20.24
2023-03-17T14:00:25.208Z,20.05
2023-03-17T14:05:50.846Z,20.83
2023-03-17T14:08:26.445Z,20.97
2023-03-17T14:10:59.381Z,20.55
2023-03-17T14:13:50.237Z,20.77
2023-03-17T14:16:29.111Z,20.94
2023-03-17T14:19:13.621Z,20.59
2023-03-17T14:21:43.389Z,20.59
2023-03-17T14:24:27.757Z,21.19
2023-03-17T14:26:57.539Z,20.84
2023-03-17T14:29:30.520Z,20.84
2023-03-17T14:32:06.487Z,20.74
2023-03-17T14:34:37.854Z,20.68
2023-03-17T14:37:09.299Z,20.75
2023-03-17T14:42:28.919Z,20.55
2023-03-17T14:45:07.581Z,20.59
2023-03-17T14:47:43.341Z,20.53
2023-03-17T14:50:19.038Z,20.40
2023-03-17T14:52:51.047Z,20.38
2023-03-17T14:55:21.129Z,20.38
2023-03-17T14:57:53.310Z,20.49
2023-03-17T15:00:38.070Z,20.18
2023-03-17T15:03:25.783Z,20.42
2023-03-17T15:06:07.801Z,20.42
2023-03-17T15:08:41.990Z,20.49
2023-03-17T15:11:17.550Z,20.41
2023-03-17T15:13:48.116Z,19.97
2023-03-17T15:16:30.130Z,19.97
2023-03-17T15:19:05.957Z,19.99
2023-03-17T15:21:38.301Z,20.06
2023-03-17T15:24:27.987Z,19.93
2023-03-17T15:27:02.523Z,20.23
2023-03-17T15:29:32.586Z,19.55
2023-03-17T15:32:05.361Z,19.61
2023-03-17T15:34:35.321Z,19.76
2023-03-17T15:37:07.073Z,19.76
2023-03-17T15:39:36.889Z,19.51
2023-03-17T15:42:06.803Z,19.10
2023-03-17T15:44:36.666Z,19.43
2023-03-17T15:47:06.766Z,19.01
2023-03-17T15:49:36.509Z,19.21
2023-03-17T15:52:25.390Z,19.16
2023-03-17T15:54:57.517Z,19.21
2023-03-17T15:57:27.974Z,19.10
2023-03-17T15:59:57.757Z,19.17
2023-03-17T16:02:30.540Z,19.21
2023-03-17T16:05:03.705Z,19.34
2023-03-17T16:07:33.533Z,19.15
2023-03-17T16:10:03.455Z,19.37
2023-03-17T16:12:33.631Z,19.14
2023-03-17T16:15:13.243Z,19.14
2023-03-17T16:17:35.126Z,19.18
2023-03-17T16:20:06.749Z,18.83
2023-03-17T16:22:42.207Z,19.28
2023-03-17T16:25:31.456Z,18.78
2023-03-17T16:28:03.832Z,18.78
2023-03-17T16:30:34.949Z,18.80
2023-03-17T16:33:30.239Z,18.92
2023-03-17T16:36:01.452Z,18.94
2023-03-17T16:38:34.441Z,18.86
2023-03-17T16:41:24.486Z,18.94
2023-03-17T16:43:59.794Z,18.94
2023-03-17T16:46:34.775Z,18.76
2023-03-17T16:49:06.267Z,18.48
2023-03-17T16:51:36.060Z,18.18
2023-03-17T16:54:08.156Z,18.19
2023-03-17T16:56:40.253Z,18.22
2023-03-17T16:59:16.033Z,18.19
2023-03-17T17:01:45.612Z,18.06
2023-03-17T17:04:15.195Z,17.93
2023-03-17T17:06:45.115Z,17.74
2023-03-17T17:09:14.884Z,17.75
2023-03-17T17:11:44.746Z,17.76
2023-03-17T17:14:14.811Z,17.74
2023-03-17T17:16:44.728Z,17.54
2023-03-17T17:19:17.432Z,17.54
2023-03-17T17:21:47.184Z,17.65
2023-03-17T17:24:17.774Z,17.63
2023-03-17T17:26:47.682Z,17.73
2023-03-17T17:29:17.782Z,17.63
2023-03-17T17:31:47.926Z,17.55
2023-03-17T17:34:18.029Z,17.62
2023-03-17T17:36:47.891Z,17.55
2023-03-17T17:39:17.928Z,17.41
2023-03-17T17:41:48.366Z,17.48
2023-03-17T17:44:19.118Z,17.20
2023-03-17T17:46:49.011Z,17.25
2023-03-17T17:49:19.096Z,17.13
2023-03-17T17:51:48.863Z,16.85
2023-03-17T17:54:18.942Z,16.66
2023-03-17T17:56:48.706Z,16.66
2023-03-17T17:59:18.867Z,16.67
2023-03-17T18:01:48.896Z,16.64
2023-03-17T18:04:19.031Z,16.59
2023-03-17T18:06:48.963Z,16.59
2023-03-17T18:09:19.486Z,16.58
2023-03-17T18:11:49.604Z,16.58
2023-03-17T18:14:19.650Z,16.46
2023-03-17T18:16:51.266Z,16.46
2023-03-17T18:19:21.681Z,16.22
2023-03-17T18:21:51.525Z,16.22
2023-03-17T18:24:21.580Z,16.43
2023-03-17T18:26:51.708Z,16.31
2023-03-17T18:29:21.892Z,16.34
2023-03-17T18:31:54.604Z,16.29
2023-03-17T18:34:30.274Z,16.34
2023-03-17T18:37:01.870Z,16.34
2023-03-17T18:39:32.814Z,16.21
2023-03-17T18:42:03.873Z,16.01
2023-03-17T18:44:33.986Z,16.18
2023-03-17T18:47:04.312Z,16.27
2023-03-17T18:49:34.842Z,16.30
2023-03-17T18:52:05.070Z,16.05
2023-03-17T18:54:35.532Z,16.16
2023-03-17T18:57:05.361Z,16.16
2023-03-17T18:59:35.862Z,16.16
2023-03-17T19:02:06.741Z,16.04
2023-03-17T19:04:37.066Z,15.80
2023-03-17T19:07:07.082Z,16.00
2023-03-17T19:09:36.899Z,15.65
2023-03-17T19:12:09.824Z,15.65
2023-03-17T19:14:40.285Z,15.92
2023-03-17T19:17:10.196Z,15.92
2023-03-17T19:19:41.406Z,15.77
2023-03-17T19:22:11.055Z,15.79
2023-03-17T19:24:41.164Z,15.95
2023-03-17T19:27:10.962Z,15.95
2023-03-17T19:29:41.239Z,15.76
2023-03-17T19:32:11.346Z,15.91
2023-03-17T19:34:41.434Z,15.92
2023-03-17T19:37:11.656Z,15.74
2023-03-17T19:39:46.119Z,15.66
2023-03-17T19:42:17.338Z,15.67
2023-03-17T19:44:47.386Z,15.85
2023-03-17T19:47:17.496Z,15.85
2023-03-17T19:49:47.644Z,15.78
2023-03-17T19:52:18.782Z,15.78
2023-03-17T19:54:48.804Z,15.73
2023-03-17T19:57:20.645Z,15.73
2023-03-17T19:59:51.179Z,15.67
2023-03-17T20:02:20.989Z,15.67
2023-03-17T20:04:51.180Z,15.60
2023-03-17T20:07:21.306Z,15.65
2023-03-17T20:09:53.266Z,15.77
2023-03-17T20:12:23.228Z,15.77
2023-03-17T20:14:53.630Z,15.60
2023-03-17T20:17:23.415Z,15.51
2023-03-17T20:19:53.367Z,15.53
2023-03-17T20:22:22.824Z,15.44
2023-03-17T20:24:52.606Z,15.49
2023-03-17T20:27:23.385Z,15.47
2023-03-17T20:29:53.146Z,15.34
2023-03-17T20:32:23.139Z,15.32
2023-03-17T20:34:52.872Z,15.45
2023-03-17T20:37:22.736Z,15.41
2023-03-17T20:39:54.236Z,15.51
2023-03-17T20:42:24.859Z,15.61
2023-03-17T20:44:54.692Z,15.45
2023-03-17T20:47:24.751Z,15.52
2023-03-17T20:49:55.813Z,15.40
2023-03-17T20:52:30.002Z,15.25
2023-03-17T20:55:00.014Z,15.41
2023-03-17T20:57:30.279Z,15.45
2023-03-17T21:00:00.975Z,15.30
2023-03-17T21:02:30.910Z,15.30
2023-03-17T21:05:00.699Z,15.31
2023-03-17T21:07:31.019Z,15.33
2023-03-17T21:10:01.977Z,15.44
2023-03-17T21:12:31.829Z,15.15
2023-03-17T21:15:02.052Z,15.26
2023-03-17T21:17:32.559Z,14.96
2023-03-17T21:20:02.421Z,14.99
2023-03-17T21:22:33.998Z,14.97
2023-03-17T21:25:05.209Z,15.12
2023-03-17T21:27:37.633Z,15.02
2023-03-17T21:30:12.482Z,15.02
2023-03-17T21:32:42.940Z,15.23
2023-03-17T21:35:13.029Z,15.26
2023-03-17T21:37:42.879Z,15.03
2023-03-17T21:40:15.680Z,15.13
2023-03-17T21:42:45.878Z,14.95
2023-03-17T21:45:15.972Z,14.83
2023-03-17T21:47:46.351Z,14.83
2023-03-17T21:50:17.736Z,14.85
2023-03-17T21:52:48.563Z,14.96
2023-03-17T21:55:18.246Z,14.89
2023-03-17T21:57:48.071Z,14.81
2023-03-17T22:00:18.443Z,14.75
2023-03-17T22:02:48.240Z,14.80
2023-03-17T22:05:18.564Z,14.77
2023-03-17T22:07:48.321Z,14.77
2023-03-17T22:10:18.253Z,14.78
2023-03-17T22:12:48.006Z,14.70
2023-03-17T22:15:19.741Z,14.67
2023-03-17T22:17:49.238Z,14.92
2023-03-17T22:20:19.455Z,14.88
2023-03-17T22:22:49.319Z,14.79
2023-03-17T22:25:22.916Z,14.90
2023-03-17T22:27:53.553Z,14.89
2023-03-17T22:30:23.613Z,14.93
2023-03-17T22:32:53.805Z,14.86
2023-03-17T22:35:24.992Z,14.86
2023-03-17T22:37:54.746Z,14.86
2023-03-17T22:40:24.561Z,14.88
2023-03-17T22:42:56.908Z,14.91
2023-03-17T22:45:27.410Z,14.85
2023-03-17T22:47:57.292Z,14.80
2023-03-17T22:50:26.856Z,14.49
2023-03-17T22:52:56.819Z,14.55
2023-03-17T22:55:26.379Z,14.34
2023-03-17T22:57:56.119Z,14.41
2023-03-17T23:00:26.055Z,14.43
2023-03-17T23:02:56.128Z,14.47
2023-03-17T23:05:26.086Z,14.37
2023-03-17T23:07:55.930Z,14.31
2023-03-17T23:10:26.560Z,14.35
2023-03-17T23:12:56.324Z,14.22
2023-03-17T23:15:27.929Z,14.28
2023-03-17T23:17:57.626Z,14.20
2023-03-17T23:20:27.686Z,14.41
2023-03-17T23:22:57.545Z,14.31
2023-03-17T23:25:27.378Z,14.09
2023-03-17T23:27:57.182Z,14.27
2023-03-17T23:30:27.358Z,14.27
2023-03-17T23:32:57.226Z,14.17
2023-03-17T23:35:27.098Z,14.18
2023-03-17T23:37:56.988Z,14.10
2023-03-17T23:40:26.829Z,14.04
2023-03-17T23:42:56.752Z,14.11
2023-03-17T23:45:26.715Z,14.03
2023-03-17T23:47:57.540Z,13.95
2023-03-17T23:50:27.144Z,14.12
2023-03-17T23:52:57.007Z,14.06
2023-03-17T23:55:26.846Z,14.05
2023-03-17T23:57:56.773Z,13.83
